sensor_id;sensor_type;location;lat;lon;timestamp;temperature;humidity
67194;DHT22;54121;53.508;49.422;2022-09-17T00:00:51;27.00;37.70
67194;DHT22;54121;53.508;49.422;2022-09-17T00:03:20;26.80;37.50
67194;DHT22;54121;53.508;49.422;2022-09-17T00:05:48;26.50;38.40
67194;DHT22;54121;53.508;49.422;2022-09-17T00:08:15;26.50;38.80
67194;DHT22;54121;53.508;49.422;2022-09-17T00:10:43;27.30;37.00
67194;DHT22;54121;53.508;49.422;2022-09-17T00:13:11;27.50;36.20
67194;DHT22;54121;53.508;49.422;2022-09-17T00:15:42;27.70;35.70
67194;DHT22;54121;53.508;49.422;2022-09-17T00:18:11;27.50;36.00
67194;DHT22;54121;53.508;49.422;2022-09-17T00:20:39;27.20;36.80
67194;DHT22;54121;53.508;49.422;2022-09-17T00:23:06;27.10;37.00
67194;DHT22;54121;53.508;49.422;2022-09-17T00:25:36;27.00;37.40
67194;DHT22;54121;53.508;49.422;2022-09-17T00:28:03;26.70;38.00
67194;DHT22;54121;53.508;49.422;2022-09-17T00:30:31;26.80;38.20
67194;DHT22;54121;53.508;49.422;2022-09-17T00:32:57;27.00;37.50
67194;DHT22;54121;53.508;49.422;2022-09-17T00:35:25;26.90;37.70
67194;DHT22;54121;53.508;49.422;2022-09-17T00:37:53;26.70;38.30
67194;DHT22;54121;53.508;49.422;2022-09-17T00:40:20;26.40;39.00
67194;DHT22;54121;53.508;49.422;2022-09-17T00:42:47;26.60;38.80
67194;DHT22;54121;53.508;49.422;2022-09-17T00:45:15;26.40;38.90
67194;DHT22;54121;53.508;49.422;2022-09-17T00:47:45;26.70;38.60
67194;DHT22;54121;53.508;49.422;2022-09-17T00:52:50;26.30;39.70
67194;DHT22;54121;53.508;49.422;2022-09-17T00:55:29;26.40;39.40
67194;DHT22;54121;53.508;49.422;2022-09-17T00:57:58;26.50;39.00
67194;DHT22;54121;53.508;49.422;2022-09-17T01:00:27;26.80;38.10
67194;DHT22;54121;53.508;49.422;2022-09-17T01:02:55;26.40;39.30
67194;DHT22;54121;53.508;49.422;2022-09-17T01:05:39;26.10;40.10
67194;DHT22;54121;53.508;49.422;2022-09-17T01:23:07;26.40;39.90
67194;DHT22;54121;53.508;49.422;2022-09-17T01:29:12;26.40;39.90
67194;DHT22;54121;53.508;49.422;2022-09-17T01:31:56;26.50;39.80
67194;DHT22;54121;53.508;49.422;2022-09-17T01:34:44;26.40;39.90
67194;DHT22;54121;53.508;49.422;2022-09-17T01:40:06;26.40;39.80
67194;DHT22;54121;53.508;49.422;2022-09-17T01:42:48;26.80;38.80
67194;DHT22;54121;53.508;49.422;2022-09-17T01:45:36;26.70;39.20
67194;DHT22;54121;53.508;49.422;2022-09-17T01:48:16;26.40;39.80
67194;DHT22;54121;53.508;49.422;2022-09-17T01:50:55;26.40;39.90
67194;DHT22;54121;53.508;49.422;2022-09-17T01:53:45;26.40;40.10
67194;DHT22;54121;53.508;49.422;2022-09-17T01:56:18;26.40;40.00
67194;DHT22;54121;53.508;49.422;2022-09-17T01:59:35;26.10;40.80
67194;DHT22;54121;53.508;49.422;2022-09-17T02:01:44;26.20;40.60
67194;DHT22;54121;53.508;49.422;2022-09-17T02:04:24;26.60;39.80
67194;DHT22;54121;53.508;49.422;2022-09-17T02:06:58;26.50;39.70
67194;DHT22;54121;53.508;49.422;2022-09-17T02:09:37;26.90;38.90
67194;DHT22;54121;53.508;49.422;2022-09-17T02:12:11;26.50;39.70
67194;DHT22;54121;53.508;49.422;2022-09-17T02:14:49;26.80;39.60
67194;DHT22;54121;53.508;49.422;2022-09-17T02:17:46;26.80;38.90
67194;DHT22;54121;53.508;49.422;2022-09-17T02:20:16;26.70;39.50
67194;DHT22;54121;53.508;49.422;2022-09-17T02:22:56;26.30;41.60
67194;DHT22;54121;53.508;49.422;2022-09-17T02:25:38;26.30;40.80
67194;DHT22;54121;53.508;49.422;2022-09-17T02:28:16;26.20;40.80
67194;DHT22;54121;53.508;49.422;2022-09-17T02:30:46;26.40;40.30
67194;DHT22;54121;53.508;49.422;2022-09-17T02:33:14;26.60;39.80
67194;DHT22;54121;53.508;49.422;2022-09-17T02:35:42;26.60;39.50
67194;DHT22;54121;53.508;49.422;2022-09-17T02:38:09;26.40;40.30
67194;DHT22;54121;53.508;49.422;2022-09-17T02:40:49;27.10;38.90
67194;DHT22;54121;53.508;49.422;2022-09-17T02:43:41;27.20;38.10
67194;DHT22;54121;53.508;49.422;2022-09-17T02:54:16;26.90;39.10
67194;DHT22;54121;53.508;49.422;2022-09-17T02:57:06;27.20;38.30
67194;DHT22;54121;53.508;49.422;2022-09-17T02:59:57;27.30;38.00
67194;DHT22;54121;53.508;49.422;2022-09-17T03:02:25;27.10;38.60
67194;DHT22;54121;53.508;49.422;2022-09-17T03:04:55;27.20;38.40
67194;DHT22;54121;53.508;49.422;2022-09-17T03:07:23;27.80;37.30
67194;DHT22;54121;53.508;49.422;2022-09-17T03:09:50;27.90;36.90
67194;DHT22;54121;53.508;49.422;2022-09-17T03:12:17;27.80;37.20
67194;DHT22;54121;53.508;49.422;2022-09-17T03:14:44;27.30;38.30
67194;DHT22;54121;53.508;49.422;2022-09-17T03:17:11;27.70;37.70
67194;DHT22;54121;53.508;49.422;2022-09-17T03:19:40;27.80;37.00
67194;DHT22;54121;53.508;49.422;2022-09-17T03:22:07;27.90;36.70
67194;DHT22;54121;53.508;49.422;2022-09-17T03:24:34;27.80;37.10
67194;DHT22;54121;53.508;49.422;2022-09-17T03:27:00;28.20;36.20
67194;DHT22;54121;53.508;49.422;2022-09-17T03:29:27;28.50;35.50
67194;DHT22;54121;53.508;49.422;2022-09-17T03:31:54;28.80;35.00
67194;DHT22;54121;53.508;49.422;2022-09-17T03:34:21;28.80;34.70
67194;DHT22;54121;53.508;49.422;2022-09-17T03:36:49;28.60;34.90
67194;DHT22;54121;53.508;49.422;2022-09-17T03:39:16;28.70;34.70
67194;DHT22;54121;53.508;49.422;2022-09-17T03:41:42;28.90;33.90
67194;DHT22;54121;53.508;49.422;2022-09-17T03:44:09;28.90;34.60
67194;DHT22;54121;53.508;49.422;2022-09-17T03:46:37;29.80;32.60
67194;DHT22;54121;53.508;49.422;2022-09-17T03:49:03;29.20;33.30
67194;DHT22;54121;53.508;49.422;2022-09-17T03:51:30;29.20;33.90
67194;DHT22;54121;53.508;49.422;2022-09-17T03:53:57;29.10;33.80
67194;DHT22;54121;53.508;49.422;2022-09-17T03:56:24;29.70;32.80
67194;DHT22;54121;53.508;49.422;2022-09-17T03:58:56;29.40;33.40
67194;DHT22;54121;53.508;49.422;2022-09-17T04:01:24;29.60;32.90
67194;DHT22;54121;53.508;49.422;2022-09-17T04:03:50;29.20;33.80
67194;DHT22;54121;53.508;49.422;2022-09-17T04:06:17;29.80;32.70
67194;DHT22;54121;53.508;49.422;2022-09-17T04:08:44;29.40;33.70
67194;DHT22;54121;53.508;49.422;2022-09-17T04:11:11;30.40;31.50
67194;DHT22;54121;53.508;49.422;2022-09-17T04:13:38;30.40;31.00
67194;DHT22;54121;53.508;49.422;2022-09-17T04:16:05;30.00;31.90
67194;DHT22;54121;53.508;49.422;2022-09-17T04:18:33;29.80;32.70
67194;DHT22;54121;53.508;49.422;2022-09-17T04:21:00;30.30;31.60
67194;DHT22;54121;53.508;49.422;2022-09-17T04:23:27;30.50;31.20
67194;DHT22;54121;53.508;49.422;2022-09-17T04:25:54;29.80;30.50
67194;DHT22;54121;53.508;49.422;2022-09-17T04:28:22;30.20;31.40
67194;DHT22;54121;53.508;49.422;2022-09-17T04:30:49;30.80;30.90
67194;DHT22;54121;53.508;49.422;2022-09-17T04:33:15;31.00;30.10
67194;DHT22;54121;53.508;49.422;2022-09-17T04:35:42;31.10;30.00
67194;DHT22;54121;53.508;49.422;2022-09-17T04:38:09;31.00;30.00
67194;DHT22;54121;53.508;49.422;2022-09-17T04:40:38;30.80;30.70
67194;DHT22;54121;53.508;49.422;2022-09-17T04:43:07;30.80;30.60
67194;DHT22;54121;53.508;49.422;2022-09-17T04:45:35;31.40;30.20
67194;DHT22;54121;53.508;49.422;2022-09-17T04:48:03;32.20;29.00
67194;DHT22;54121;53.508;49.422;2022-09-17T04:50:33;32.50;28.30
67194;DHT22;54121;53.508;49.422;2022-09-17T04:53:00;33.20;27.60
67194;DHT22;54121;53.508;49.422;2022-09-17T04:55:27;33.80;26.40
67194;DHT22;54121;53.508;49.422;2022-09-17T04:57:54;33.70;26.40
67194;DHT22;54121;53.508;49.422;2022-09-17T05:00:22;33.50;26.60
67194;DHT22;54121;53.508;49.422;2022-09-17T05:02:51;34.10;25.80
67194;DHT22;54121;53.508;49.422;2022-09-17T05:05:19;34.30;25.90
67194;DHT22;54121;53.508;49.422;2022-09-17T05:07:46;35.00;24.90
67194;DHT22;54121;53.508;49.422;2022-09-17T05:10:14;35.10;24.00
67194;DHT22;54121;53.508;49.422;2022-09-17T05:12:50;35.10;24.10
67194;DHT22;54121;53.508;49.422;2022-09-17T05:15:17;34.90;24.40
67194;DHT22;54121;53.508;49.422;2022-09-17T05:17:44;34.90;24.10
67194;DHT22;54121;53.508;49.422;2022-09-17T05:20:12;34.70;24.40
67194;DHT22;54121;53.508;49.422;2022-09-17T05:22:44;34.30;24.50
67194;DHT22;54121;53.508;49.422;2022-09-17T05:25:12;33.90;25.10
67194;DHT22;54121;53.508;49.422;2022-09-17T05:27:40;33.90;25.30
67194;DHT22;54121;53.508;49.422;2022-09-17T05:30:07;33.50;25.70
67194;DHT22;54121;53.508;49.422;2022-09-17T05:32:35;33.40;26.10
67194;DHT22;54121;53.508;49.422;2022-09-17T05:35:02;33.50;26.00
67194;DHT22;54121;53.508;49.422;2022-09-17T05:37:30;33.30;26.60
67194;DHT22;54121;53.508;49.422;2022-09-17T05:39:57;34.00;25.50
67194;DHT22;54121;53.508;49.422;2022-09-17T05:42:23;33.40;25.80
67194;DHT22;54121;53.508;49.422;2022-09-17T05:44:50;33.50;26.10
67194;DHT22;54121;53.508;49.422;2022-09-17T05:47:17;33.50;26.30
67194;DHT22;54121;53.508;49.422;2022-09-17T05:49:44;34.00;25.70
67194;DHT22;54121;53.508;49.422;2022-09-17T05:52:11;34.30;25.00
67194;DHT22;54121;53.508;49.422;2022-09-17T05:54:38;35.00;24.00
67194;DHT22;54121;53.508;49.422;2022-09-17T05:57:05;33.90;25.40
67194;DHT22;54121;53.508;49.422;2022-09-17T05:59:32;32.80;26.40
67194;DHT22;54121;53.508;49.422;2022-09-17T06:01:58;33.40;25.80
67194;DHT22;54121;53.508;49.422;2022-09-17T06:04:25;33.90;25.00
67194;DHT22;54121;53.508;49.422;2022-09-17T06:06:52;34.00;24.90
67194;DHT22;54121;53.508;49.422;2022-09-17T06:09:19;34.70;24.20
67194;DHT22;54121;53.508;49.422;2022-09-17T06:11:46;34.50;24.10
67194;DHT22;54121;53.508;49.422;2022-09-17T06:14:13;34.60;24.40
67194;DHT22;54121;53.508;49.422;2022-09-17T06:16:40;34.00;25.00
67194;DHT22;54121;53.508;49.422;2022-09-17T06:19:07;33.80;25.00
67194;DHT22;54121;53.508;49.422;2022-09-17T06:21:34;34.00;25.10
67194;DHT22;54121;53.508;49.422;2022-09-17T06:24:01;33.90;25.00
67194;DHT22;54121;53.508;49.422;2022-09-17T06:26:28;33.40;25.50
67194;DHT22;54121;53.508;49.422;2022-09-17T06:28:57;33.30;25.90
67194;DHT22;54121;53.508;49.422;2022-09-17T06:31:24;34.00;25.10
67194;DHT22;54121;53.508;49.422;2022-09-17T06:33:51;33.70;25.60
67194;DHT22;54121;53.508;49.422;2022-09-17T06:36:18;33.40;25.80
67194;DHT22;54121;53.508;49.422;2022-09-17T06:38:45;33.50;26.00
67194;DHT22;54121;53.508;49.422;2022-09-17T06:41:12;33.80;25.30
67194;DHT22;54121;53.508;49.422;2022-09-17T06:43:40;34.10;25.10
67194;DHT22;54121;53.508;49.422;2022-09-17T06:46:08;33.80;25.50
67194;DHT22;54121;53.508;49.422;2022-09-17T06:48:36;32.60;27.00
67194;DHT22;54121;53.508;49.422;2022-09-17T06:51:06;33.10;26.30
67194;DHT22;54121;53.508;49.422;2022-09-17T06:53:35;33.40;26.30
67194;DHT22;54121;53.508;49.422;2022-09-17T06:56:03;33.60;26.00
67194;DHT22;54121;53.508;49.422;2022-09-17T06:58:30;33.70;25.80
67194;DHT22;54121;53.508;49.422;2022-09-17T07:00:58;32.90;26.00
67194;DHT22;54121;53.508;49.422;2022-09-17T07:03:27;33.60;25.70
67194;DHT22;54121;53.508;49.422;2022-09-17T07:05:54;33.70;25.70
67194;DHT22;54121;53.508;49.422;2022-09-17T07:08:21;33.60;25.70
67194;DHT22;54121;53.508;49.422;2022-09-17T07:10:48;34.60;24.40
67194;DHT22;54121;53.508;49.422;2022-09-17T07:13:15;35.00;23.70
67194;DHT22;54121;53.508;49.422;2022-09-17T07:15:42;35.70;22.80
67194;DHT22;54121;53.508;49.422;2022-09-17T07:18:12;35.70;22.80
67194;DHT22;54121;53.508;49.422;2022-09-17T07:20:39;35.00;23.10
67194;DHT22;54121;53.508;49.422;2022-09-17T07:23:05;35.10;23.10
67194;DHT22;54121;53.508;49.422;2022-09-17T07:25:32;35.10;23.10
67194;DHT22;54121;53.508;49.422;2022-09-17T07:28:01;34.70;23.80
67194;DHT22;54121;53.508;49.422;2022-09-17T07:30:28;35.20;23.20
67194;DHT22;54121;53.508;49.422;2022-09-17T07:32:56;35.50;22.80
67194;DHT22;54121;53.508;49.422;2022-09-17T07:35:26;35.50;22.60
67194;DHT22;54121;53.508;49.422;2022-09-17T07:37:53;35.70;22.50
67194;DHT22;54121;53.508;49.422;2022-09-17T07:40:20;35.30;23.00
67194;DHT22;54121;53.508;49.422;2022-09-17T07:42:46;35.50;23.10
67194;DHT22;54121;53.508;49.422;2022-09-17T07:45:13;35.70;22.70
67194;DHT22;54121;53.508;49.422;2022-09-17T07:47:40;36.10;22.50
67194;DHT22;54121;53.508;49.422;2022-09-17T07:50:08;36.10;22.20
67194;DHT22;54121;53.508;49.422;2022-09-17T07:52:35;36.00;22.60
67194;DHT22;54121;53.508;49.422;2022-09-17T07:55:02;35.70;22.90
67194;DHT22;54121;53.508;49.422;2022-09-17T07:57:29;36.20;22.10
67194;DHT22;54121;53.508;49.422;2022-09-17T07:59:55;35.80;22.40
67194;DHT22;54121;53.508;49.422;2022-09-17T08:02:23;36.20;22.10
67194;DHT22;54121;53.508;49.422;2022-09-17T08:04:50;35.70;22.60
67194;DHT22;54121;53.508;49.422;2022-09-17T08:07:17;36.00;22.40
67194;DHT22;54121;53.508;49.422;2022-09-17T08:09:44;36.10;22.50
67194;DHT22;54121;53.508;49.422;2022-09-17T08:12:11;34.00;24.40
67194;DHT22;54121;53.508;49.422;2022-09-17T08:14:38;33.40;25.10
67194;DHT22;54121;53.508;49.422;2022-09-17T08:17:07;33.40;25.30
67194;DHT22;54121;53.508;49.422;2022-09-17T08:19:34;32.80;26.00
67194;DHT22;54121;53.508;49.422;2022-09-17T08:22:01;33.00;26.10
67194;DHT22;54121;53.508;49.422;2022-09-17T08:24:28;33.40;25.40
67194;DHT22;54121;53.508;49.422;2022-09-17T08:26:55;33.50;25.30
67194;DHT22;54121;53.508;49.422;2022-09-17T08:29:23;34.50;24.40
67194;DHT22;54121;53.508;49.422;2022-09-17T08:31:50;34.30;24.50
67194;DHT22;54121;53.508;49.422;2022-09-17T08:34:17;35.40;23.30
67194;DHT22;54121;53.508;49.422;2022-09-17T08:36:44;34.10;24.80
67194;DHT22;54121;53.508;49.422;2022-09-17T08:39:10;33.20;25.40
67194;DHT22;54121;53.508;49.422;2022-09-17T08:42:08;33.30;25.40
67194;DHT22;54121;53.508;49.422;2022-09-17T08:44:42;34.80;23.70
67194;DHT22;54121;53.508;49.422;2022-09-17T08:47:39;34.30;24.60
67194;DHT22;54121;53.508;49.422;2022-09-17T08:52:59;35.00;22.60
67194;DHT22;54121;53.508;49.422;2022-09-17T08:55:39;33.80;24.00
67194;DHT22;54121;53.508;49.422;2022-09-17T08:58:26;35.30;22.60
67194;DHT22;54121;53.508;49.422;2022-09-17T09:06:41;36.50;21.50
67194;DHT22;54121;53.508;49.422;2022-09-17T09:09:15;35.60;22.20
67194;DHT22;54121;53.508;49.422;2022-09-17T09:11:44;35.20;22.90
67194;DHT22;54121;53.508;49.422;2022-09-17T09:16:46;36.00;22.10
67194;DHT22;54121;53.508;49.422;2022-09-17T09:19:28;36.40;21.10
67194;DHT22;54121;53.508;49.422;2022-09-17T09:22:03;36.70;21.00
67194;DHT22;54121;53.508;49.422;2022-09-17T09:24:44;37.00;20.80
67194;DHT22;54121;53.508;49.422;2022-09-17T09:27:37;37.00;20.40
67194;DHT22;54121;53.508;49.422;2022-09-17T09:30:11;37.80;19.80
67194;DHT22;54121;53.508;49.422;2022-09-17T09:33:06;36.70;20.60
67194;DHT22;54121;53.508;49.422;2022-09-17T09:35:40;37.10;20.90
67194;DHT22;54121;53.508;49.422;2022-09-17T09:40:52;38.40;19.00
67194;DHT22;54121;53.508;49.422;2022-09-17T09:43:21;37.60;19.80
67194;DHT22;54121;53.508;49.422;2022-09-17T09:59:19;38.40;19.50
67194;DHT22;54121;53.508;49.422;2022-09-17T10:01:46;38.00;19.70
67194;DHT22;54121;53.508;49.422;2022-09-17T10:04:26;37.50;20.10
67194;DHT22;54121;53.508;49.422;2022-09-17T10:07:06;37.30;20.80
67194;DHT22;54121;53.508;49.422;2022-09-17T10:09:33;37.90;19.90
67194;DHT22;54121;53.508;49.422;2022-09-17T10:14:39;37.70;20.10
67194;DHT22;54121;53.508;49.422;2022-09-17T10:17:20;37.80;19.90
67194;DHT22;54121;53.508;49.422;2022-09-17T10:22:36;37.30;20.50
67194;DHT22;54121;53.508;49.422;2022-09-17T10:25:23;37.00;20.90
67194;DHT22;54121;53.508;49.422;2022-09-17T10:27:51;36.30;21.80
67194;DHT22;54121;53.508;49.422;2022-09-17T10:30:18;36.30;22.10
67194;DHT22;54121;53.508;49.422;2022-09-17T10:35:40;35.90;23.80
67194;DHT22;54121;53.508;49.422;2022-09-17T10:38:29;35.70;25.40
67194;DHT22;54121;53.508;49.422;2022-09-17T10:43:42;34.30;26.00
67194;DHT22;54121;53.508;49.422;2022-09-17T10:46:28;34.40;25.70
67194;DHT22;54121;53.508;49.422;2022-09-17T10:51:36;34.50;25.80
67194;DHT22;54121;53.508;49.422;2022-09-17T10:54:21;34.40;27.30
67194;DHT22;54121;53.508;49.422;2022-09-17T10:56:53;34.50;27.90
67194;DHT22;54121;53.508;49.422;2022-09-17T11:02:28;34.40;28.10
67194;DHT22;54121;53.508;49.422;2022-09-17T11:07:31;34.00;27.10
67194;DHT22;54121;53.508;49.422;2022-09-17T11:10:56;33.90;27.40
67194;DHT22;54121;53.508;49.422;2022-09-17T11:16:00;33.70;27.20
67194;DHT22;54121;53.508;49.422;2022-09-17T11:18:54;33.40;27.10
67194;DHT22;54121;53.508;49.422;2022-09-17T11:21:51;33.20;27.60
67194;DHT22;54121;53.508;49.422;2022-09-17T11:27:42;33.00;29.90
67194;DHT22;54121;53.508;49.422;2022-09-17T11:30:21;33.40;31.80
67194;DHT22;54121;53.508;49.422;2022-09-17T11:36:00;33.10;33.00
67194;DHT22;54121;53.508;49.422;2022-09-17T11:46:23;32.20;33.70
67194;DHT22;54121;53.508;49.422;2022-09-17T11:49:11;31.90;33.50
67194;DHT22;54121;53.508;49.422;2022-09-17T11:51:42;32.10;33.80
67194;DHT22;54121;53.508;49.422;2022-09-17T11:54:21;31.70;34.30
67194;DHT22;54121;53.508;49.422;2022-09-17T11:56:52;31.70;34.90
67194;DHT22;54121;53.508;49.422;2022-09-17T11:59:28;31.60;35.70
67194;DHT22;54121;53.508;49.422;2022-09-17T12:02:13;31.50;36.60
67194;DHT22;54121;53.508;49.422;2022-09-17T12:04:56;31.40;36.80
67194;DHT22;54121;53.508;49.422;2022-09-17T12:10:36;31.20;36.10
67194;DHT22;54121;53.508;49.422;2022-09-17T12:13:26;31.30;36.20
67194;DHT22;54121;53.508;49.422;2022-09-17T12:16:19;31.60;35.60
67194;DHT22;54121;53.508;49.422;2022-09-17T12:19:24;31.50;35.50
67194;DHT22;54121;53.508;49.422;2022-09-17T12:22:09;31.40;35.90
67194;DHT22;54121;53.508;49.422;2022-09-17T12:24:38;31.60;36.20
67194;DHT22;54121;53.508;49.422;2022-09-17T12:27:28;31.70;34.60
67194;DHT22;54121;53.508;49.422;2022-09-17T12:30:12;31.40;34.40
67194;DHT22;54121;53.508;49.422;2022-09-17T12:33:04;31.10;34.90
67194;DHT22;54121;53.508;49.422;2022-09-17T12:58:10;32.20;32.10
67194;DHT22;54121;53.508;49.422;2022-09-17T13:00:49;32.50;31.70
67194;DHT22;54121;53.508;49.422;2022-09-17T13:03:31;32.50;31.50
67194;DHT22;54121;53.508;49.422;2022-09-17T13:06:35;31.90;32.50
67194;DHT22;54121;53.508;49.422;2022-09-17T13:12:00;33.10;30.10
67194;DHT22;54121;53.508;49.422;2022-09-17T13:14:45;33.20;30.00
67194;DHT22;54121;53.508;49.422;2022-09-17T13:20:26;33.20;29.50
67194;DHT22;54121;53.508;49.422;2022-09-17T13:22:54;32.70;30.00
67194;DHT22;54121;53.508;49.422;2022-09-17T13:25:22;33.10;30.50
67194;DHT22;54121;53.508;49.422;2022-09-17T13:28:02;33.00;29.70
67194;DHT22;54121;53.508;49.422;2022-09-17T13:30:56;33.20;29.30
67194;DHT22;54121;53.508;49.422;2022-09-17T13:33:49;33.40;29.20
67194;DHT22;54121;53.508;49.422;2022-09-17T13:39:03;33.20;29.40
67194;DHT22;54121;53.508;49.422;2022-09-17T13:41:35;33.30;29.40
67194;DHT22;54121;53.508;49.422;2022-09-17T13:44:05;33.20;29.50
67194;DHT22;54121;53.508;49.422;2022-09-17T13:46:33;33.60;28.80
67194;DHT22;54121;53.508;49.422;2022-09-17T13:49:19;33.40;28.90
67194;DHT22;54121;53.508;49.422;2022-09-17T13:51:48;33.70;28.70
67194;DHT22;54121;53.508;49.422;2022-09-17T13:54:17;33.90;28.10
67194;DHT22;54121;53.508;49.422;2022-09-17T13:56:48;34.10;28.00
67194;DHT22;54121;53.508;49.422;2022-09-17T13:59:19;33.90;28.10
67194;DHT22;54121;53.508;49.422;2022-09-17T14:02:24;34.20;27.60
67194;DHT22;54121;53.508;49.422;2022-09-17T14:04:50;33.60;28.30
67194;DHT22;54121;53.508;49.422;2022-09-17T14:15:36;33.70;28.30
67194;DHT22;54121;53.508;49.422;2022-09-17T14:23:42;33.30;29.00
67194;DHT22;54121;53.508;49.422;2022-09-17T14:26:17;33.60;28.60
67194;DHT22;54121;53.508;49.422;2022-09-17T14:31:56;33.40;28.50
67194;DHT22;54121;53.508;49.422;2022-09-17T14:34:26;33.40;28.60
67194;DHT22;54121;53.508;49.422;2022-09-17T14:36:55;33.60;28.40
67194;DHT22;54121;53.508;49.422;2022-09-17T14:39:26;33.40;28.80
67194;DHT22;54121;53.508;49.422;2022-09-17T14:41:53;33.60;28.50
67194;DHT22;54121;53.508;49.422;2022-09-17T14:44:24;33.40;28.60
67194;DHT22;54121;53.508;49.422;2022-09-17T14:47:06;33.30;28.80
67194;DHT22;54121;53.508;49.422;2022-09-17T14:49:35;33.50;28.40
67194;DHT22;54121;53.508;49.422;2022-09-17T14:52:29;33.50;28.60
67194;DHT22;54121;53.508;49.422;2022-09-17T14:57:46;33.60;28.40
67194;DHT22;54121;53.508;49.422;2022-09-17T15:00:34;33.70;28.00
67194;DHT22;54121;53.508;49.422;2022-09-17T15:03:01;33.70;28.20
67194;DHT22;54121;53.508;49.422;2022-09-17T15:05:36;33.10;29.30
67194;DHT22;54121;53.508;49.422;2022-09-17T15:08:25;32.70;29.60
67194;DHT22;54121;53.508;49.422;2022-09-17T15:11:02;32.30;30.00
67194;DHT22;54121;53.508;49.422;2022-09-17T15:13:48;32.40;30.00
67194;DHT22;54121;53.508;49.422;2022-09-17T15:16:24;33.30;28.80
67194;DHT22;54121;53.508;49.422;2022-09-17T15:18:54;33.00;29.00
67194;DHT22;54121;53.508;49.422;2022-09-17T15:21:34;33.00;29.00
67194;DHT22;54121;53.508;49.422;2022-09-17T15:24:37;33.60;28.30
67194;DHT22;54121;53.508;49.422;2022-09-17T15:27:25;33.50;28.10
67194;DHT22;54121;53.508;49.422;2022-09-17T15:29:58;33.00;28.80
67194;DHT22;54121;53.508;49.422;2022-09-17T15:32:27;33.10;28.80
67194;DHT22;54121;53.508;49.422;2022-09-17T15:37:51;32.90;29.00
67194;DHT22;54121;53.508;49.422;2022-09-17T15:40:28;32.70;29.30
67194;DHT22;54121;53.508;49.422;2022-09-17T15:45:38;32.90;29.00
67194;DHT22;54121;53.508;49.422;2022-09-17T15:50:55;32.90;28.60
67194;DHT22;54121;53.508;49.422;2022-09-17T15:53:24;32.80;28.90
67194;DHT22;54121;53.508;49.422;2022-09-17T15:56:07;32.90;28.80
67194;DHT22;54121;53.508;49.422;2022-09-17T16:08:56;32.60;29.30
67194;DHT22;54121;53.508;49.422;2022-09-17T16:11:29;32.50;29.00
67194;DHT22;54121;53.508;49.422;2022-09-17T16:13:58;32.40;29.40
67194;DHT22;54121;53.508;49.422;2022-09-17T16:16:35;32.50;29.20
67194;DHT22;54121;53.508;49.422;2022-09-17T16:19:05;32.30;29.30
67194;DHT22;54121;53.508;49.422;2022-09-17T16:21:32;32.50;29.40
67194;DHT22;54121;53.508;49.422;2022-09-17T16:23:58;32.50;29.20
67194;DHT22;54121;53.508;49.422;2022-09-17T16:26:30;32.70;29.10
67194;DHT22;54121;53.508;49.422;2022-09-17T16:29:02;32.70;28.70
67194;DHT22;54121;53.508;49.422;2022-09-17T16:31:30;32.90;28.60
67194;DHT22;54121;53.508;49.422;2022-09-17T16:33:58;32.80;28.70
67194;DHT22;54121;53.508;49.422;2022-09-17T16:36:26;32.80;28.50
67194;DHT22;54121;53.508;49.422;2022-09-17T16:38:52;32.70;29.00
67194;DHT22;54121;53.508;49.422;2022-09-17T16:41:19;32.80;28.60
67194;DHT22;54121;53.508;49.422;2022-09-17T16:43:46;32.60;28.90
67194;DHT22;54121;53.508;49.422;2022-09-17T16:46:13;32.50;29.20
67194;DHT22;54121;53.508;49.422;2022-09-17T16:48:41;32.50;29.20
67194;DHT22;54121;53.508;49.422;2022-09-17T16:51:11;32.50;29.10
67194;DHT22;54121;53.508;49.422;2022-09-17T16:53:39;32.30;29.40
67194;DHT22;54121;53.508;49.422;2022-09-17T16:56:10;32.60;29.10
67194;DHT22;54121;53.508;49.422;2022-09-17T16:58:37;32.50;29.20
67194;DHT22;54121;53.508;49.422;2022-09-17T17:01:13;32.20;29.70
67194;DHT22;54121;53.508;49.422;2022-09-17T17:03:41;32.10;29.70
67194;DHT22;54121;53.508;49.422;2022-09-17T17:06:18;31.90;30.00
67194;DHT22;54121;53.508;49.422;2022-09-17T17:08:45;32.00;30.00
67194;DHT22;54121;53.508;49.422;2022-09-17T17:11:12;31.50;30.40
67194;DHT22;54121;53.508;49.422;2022-09-17T17:13:43;31.00;31.40
67194;DHT22;54121;53.508;49.422;2022-09-17T17:16:12;30.90;31.70
67194;DHT22;54121;53.508;49.422;2022-09-17T17:18:43;31.20;31.30
67194;DHT22;54121;53.508;49.422;2022-09-17T17:21:12;31.10;31.50
67194;DHT22;54121;53.508;49.422;2022-09-17T17:23:39;31.10;31.10
67194;DHT22;54121;53.508;49.422;2022-09-17T17:26:08;31.30;31.10
67194;DHT22;54121;53.508;49.422;2022-09-17T17:28:36;31.40;30.70
67194;DHT22;54121;53.508;49.422;2022-09-17T17:31:03;31.20;30.80
67194;DHT22;54121;53.508;49.422;2022-09-17T17:33:30;30.90;31.50
67194;DHT22;54121;53.508;49.422;2022-09-17T17:36:02;30.70;31.90
67194;DHT22;54121;53.508;49.422;2022-09-17T17:38:29;30.70;32.10
67194;DHT22;54121;53.508;49.422;2022-09-17T17:41:09;30.70;32.20
67194;DHT22;54121;53.508;49.422;2022-09-17T17:43:37;30.30;32.80
67194;DHT22;54121;53.508;49.422;2022-09-17T17:46:06;30.10;33.40
67194;DHT22;54121;53.508;49.422;2022-09-17T17:48:34;29.90;34.20
67194;DHT22;54121;53.508;49.422;2022-09-17T17:51:05;29.80;33.80
67194;DHT22;54121;53.508;49.422;2022-09-17T17:53:33;29.80;34.20
67194;DHT22;54121;53.508;49.422;2022-09-17T17:56:05;30.20;33.50
67194;DHT22;54121;53.508;49.422;2022-09-17T17:58:33;29.80;34.00
67194;DHT22;54121;53.508;49.422;2022-09-17T18:01:19;29.90;34.10
67194;DHT22;54121;53.508;49.422;2022-09-17T18:03:47;29.60;34.50
67194;DHT22;54121;53.508;49.422;2022-09-17T18:06:14;29.70;34.30
67194;DHT22;54121;53.508;49.422;2022-09-17T18:08:42;29.60;34.20
67194;DHT22;54121;53.508;49.422;2022-09-17T18:11:10;29.90;34.00
67194;DHT22;54121;53.508;49.422;2022-09-17T18:13:38;29.70;34.30
67194;DHT22;54121;53.508;49.422;2022-09-17T18:16:06;30.10;33.60
67194;DHT22;54121;53.508;49.422;2022-09-17T18:18:36;29.90;33.70
67194;DHT22;54121;53.508;49.422;2022-09-17T18:21:06;29.70;34.40
67194;DHT22;54121;53.508;49.422;2022-09-17T18:23:34;29.80;34.20
67194;DHT22;54121;53.508;49.422;2022-09-17T18:26:02;29.50;34.70
67194;DHT22;54121;53.508;49.422;2022-09-17T18:28:30;29.70;34.10
67194;DHT22;54121;53.508;49.422;2022-09-17T18:33:33;30.20;33.60
67194;DHT22;54121;53.508;49.422;2022-09-17T18:36:02;29.70;34.30